createdAt,value
2023-05-20T00:01:39.423Z,1.98
2023-05-20T00:04:32.478Z,1.67
2023-05-20T00:07:26.146Z,1.77
2023-05-20T00:10:20.842Z,1.80
2023-05-20T00:13:14.602Z,1.60
2023-05-20T00:16:07.630Z,1.65
2023-05-20T00:19:00.779Z,1.33
2023-05-20T00:21:54.135Z,1.83
2023-05-20T00:24:47.764Z,1.45
2023-05-20T00:27:43.085Z,1.45
2023-05-20T00:30:36.736Z,1.70
2023-05-20T00:33:30.518Z,1.50
2023-05-20T00:36:23.517Z,1.40
2023-05-20T00:39:16.433Z,1.75
2023-05-20T00:42:09.267Z,1.80
2023-05-20T00:45:03.940Z,1.70
2023-05-20T00:47:59.742Z,1.63
2023-05-20T00:50:53.623Z,1.75
2023-05-20T00:53:47.127Z,1.52
2023-05-20T00:56:40.282Z,1.77
2023-05-20T00:59:33.982Z,1.55
2023-05-20T01:02:28.907Z,1.40
2023-05-20T01:05:22.258Z,1.50
2023-05-20T01:08:15.577Z,1.42
2023-05-20T01:11:12.151Z,1.50
2023-05-20T01:14:09.536Z,1.58
2023-05-20T01:17:09.417Z,1.40
2023-05-20T01:20:07.345Z,1.90
2023-05-20T01:23:02.690Z,1.65
2023-05-20T01:25:56.570Z,1.40
2023-05-20T01:28:51.188Z,1.50
2023-05-20T01:31:44.833Z,1.70
2023-05-20T01:34:39.907Z,1.52
2023-05-20T01:37:35.524Z,1.98
2023-05-20T01:40:30.340Z,1.58
2023-05-20T01:43:23.597Z,1.90
2023-05-20T01:46:17.285Z,1.95
2023-05-20T01:49:10.517Z,2.00
2023-05-20T01:52:03.542Z,1.40
2023-05-20T01:54:56.516Z,1.75
2023-05-20T01:57:50.730Z,1.75
2023-05-20T02:00:45.092Z,2.38
2023-05-20T02:03:38.625Z,1.38
2023-05-20T02:06:31.523Z,1.70
2023-05-20T02:09:24.489Z,1.83
2023-05-20T02:12:17.532Z,2.10
2023-05-20T02:15:12.320Z,1.75
2023-05-20T02:18:05.592Z,1.45
2023-05-20T02:21:02.651Z,2.00
2023-05-20T02:23:55.356Z,1.65
2023-05-20T02:26:49.533Z,1.58
2023-05-20T02:29:43.865Z,1.85
2023-05-20T02:32:39.122Z,1.60
2023-05-20T02:35:32.319Z,1.70
2023-05-20T02:38:25.694Z,1.77
2023-05-20T02:41:18.416Z,1.60
2023-05-20T02:44:11.644Z,2.08
2023-05-20T02:47:04.664Z,1.60
2023-05-20T02:49:59.170Z,1.48
2023-05-20T02:52:52.440Z,1.98
2023-05-20T02:55:48.761Z,1.73
2023-05-20T02:58:41.591Z,1.83
2023-05-20T03:01:35.567Z,1.70
2023-05-20T03:04:28.840Z,1.52
2023-05-20T03:07:23.834Z,1.60
2023-05-20T03:10:17.453Z,2.17
2023-05-20T03:13:11.568Z,1.90
2023-05-20T03:16:04.470Z,1.75
2023-05-20T03:18:57.660Z,1.67
2023-05-20T03:21:50.679Z,1.70
2023-05-20T03:24:46.345Z,1.63
2023-05-20T03:27:39.760Z,2.00
2023-05-20T03:30:32.597Z,2.03
2023-05-20T03:33:27.085Z,1.55
2023-05-20T03:36:20.435Z,2.05
2023-05-20T03:39:13.773Z,2.03
2023-05-20T03:42:08.384Z,1.98
2023-05-20T03:45:01.406Z,1.92
2023-05-20T03:47:54.791Z,1.83
2023-05-20T03:50:47.742Z,1.83
2023-05-20T03:53:41.181Z,1.65
2023-05-20T03:56:34.595Z,1.90
2023-05-20T03:59:29.330Z,2.00
2023-05-20T04:02:22.832Z,1.90
2023-05-20T04:05:16.684Z,1.77
2023-05-20T04:08:09.888Z,2.20
2023-05-20T04:11:03.378Z,2.00
2023-05-20T04:13:56.582Z,1.85
2023-05-20T04:16:51.735Z,2.00
2023-05-20T04:19:45.089Z,2.40
2023-05-20T04:22:39.519Z,2.10
2023-05-20T04:25:33.213Z,1.75
2023-05-20T04:28:28.107Z,2.33
2023-05-20T04:31:26.588Z,1.88
2023-05-20T04:34:26.758Z,2.03
2023-05-20T04:37:20.928Z,2.45
2023-05-20T04:40:15.003Z,2.10
2023-05-20T04:43:08.207Z,2.13
2023-05-20T04:46:06.012Z,2.08
2023-05-20T04:48:59.579Z,1.90
2023-05-20T04:51:55.589Z,2.17
2023-05-20T04:54:48.355Z,2.10
2023-05-20T04:57:42.782Z,2.25
2023-05-20T05:00:36.740Z,1.85
2023-05-20T05:03:29.992Z,2.08
2023-05-20T05:06:23.989Z,2.03
2023-05-20T05:09:18.741Z,2.20
2023-05-20T05:12:11.808Z,1.75
2023-05-20T05:15:04.814Z,2.78
2023-05-20T05:17:57.787Z,2.53
2023-05-20T05:20:50.685Z,2.25
2023-05-20T05:23:43.947Z,2.65
2023-05-20T05:26:39.064Z,2.20
2023-05-20T05:29:32.719Z,2.20
2023-05-20T05:32:25.936Z,2.65
2023-05-20T05:35:19.868Z,2.47
2023-05-20T05:38:12.762Z,2.97
2023-05-20T05:41:05.906Z,2.50
2023-05-20T05:44:00.524Z,2.25
2023-05-20T05:46:53.832Z,2.45
2023-05-20T05:49:46.927Z,2.38
2023-05-20T05:52:41.289Z,2.20
2023-05-20T05:55:35.060Z,2.40
2023-05-20T05:58:28.767Z,2.40
2023-05-20T06:01:23.333Z,2.55
2023-05-20T06:04:16.713Z,2.75
2023-05-20T06:07:09.532Z,2.60
2023-05-20T06:10:02.671Z,2.63
2023-05-20T06:12:55.676Z,2.45
2023-05-20T06:15:51.076Z,2.70
2023-05-20T06:18:47.417Z,2.95
2023-05-20T06:21:40.679Z,2.85
2023-05-20T06:24:36.209Z,2.53
2023-05-20T06:27:29.702Z,2.70
2023-05-20T06:30:22.838Z,2.67
2023-05-20T06:33:15.669Z,2.63
2023-05-20T06:36:09.979Z,2.63
2023-05-20T06:39:04.150Z,2.50
2023-05-20T06:41:57.616Z,2.50
2023-05-20T06:44:50.761Z,2.97
2023-05-20T06:47:44.093Z,2.70
2023-05-20T06:50:37.547Z,2.88
2023-05-20T06:53:31.870Z,2.78
2023-05-20T06:56:24.669Z,2.78
2023-05-20T06:59:17.627Z,2.53
2023-05-20T07:02:10.898Z,2.78
2023-05-20T07:05:03.588Z,3.33
2023-05-20T07:07:56.774Z,2.67
2023-05-20T07:10:51.111Z,3.10
2023-05-20T07:13:45.025Z,2.88
2023-05-20T07:16:39.285Z,3.15
2023-05-20T07:19:33.754Z,2.88
2023-05-20T07:22:26.629Z,3.80
2023-05-20T07:25:19.828Z,3.20
2023-05-20T07:28:16.762Z,2.83
2023-05-20T07:31:09.700Z,3.05
2023-05-20T07:34:03.177Z,3.38
2023-05-20T07:36:57.110Z,3.30
2023-05-20T07:39:50.940Z,3.65
2023-05-20T07:42:43.456Z,2.83
2023-05-20T07:45:38.552Z,2.53
2023-05-20T07:48:31.511Z,3.08
2023-05-20T07:51:25.387Z,2.83
2023-05-20T07:54:18.964Z,2.70
2023-05-20T07:57:12.030Z,2.95
2023-05-20T08:00:06.437Z,2.83
2023-05-20T08:03:01.399Z,3.30
2023-05-20T08:05:54.824Z,3.53
2023-05-20T08:08:47.973Z,2.50
2023-05-20T08:11:40.789Z,3.17
2023-05-20T08:14:33.984Z,2.95
2023-05-20T08:17:27.086Z,2.50
2023-05-20T08:20:22.709Z,2.70
2023-05-20T08:23:15.629Z,2.90
2023-05-20T08:26:09.064Z,4.38
2023-05-20T08:29:02.437Z,3.13
2023-05-20T08:31:55.784Z,2.97
2023-05-20T08:34:49.718Z,3.03
2023-05-20T08:37:43.974Z,3.20
2023-05-20T08:40:37.221Z,3.30
2023-05-20T08:43:32.487Z,3.55
2023-05-20T08:46:26.336Z,3.40
2023-05-20T08:49:20.992Z,3.05
2023-05-20T08:52:14.727Z,3.58
2023-05-20T08:55:12.411Z,3.55
2023-05-20T08:58:05.697Z,3.92
2023-05-20T09:00:59.872Z,3.80
2023-05-20T09:03:56.014Z,3.80
2023-05-20T09:06:49.199Z,4.05
2023-05-20T09:09:42.623Z,3.20
2023-05-20T09:12:37.911Z,4.53
2023-05-20T09:15:30.745Z,5.05
2023-05-20T09:18:24.711Z,3.80
2023-05-20T09:21:18.286Z,5.38
2023-05-20T09:24:11.747Z,5.40
2023-05-20T09:27:05.910Z,3.95
2023-05-20T09:30:00.456Z,4.15
2023-05-20T09:32:57.591Z,4.32
2023-05-20T09:35:50.959Z,4.35
2023-05-20T09:38:44.952Z,5.40
2023-05-20T09:41:40.676Z,4.47
2023-05-20T09:44:34.420Z,4.25
2023-05-20T09:47:29.267Z,5.10
2023-05-20T09:50:23.670Z,5.13
2023-05-20T09:53:18.589Z,4.45
2023-05-20T09:56:12.892Z,3.95
2023-05-20T09:59:06.792Z,4.30
2023-05-20T10:01:59.952Z,4.55
2023-05-20T10:04:56.612Z,4.10
2023-05-20T10:08:21.138Z,4.25
2023-05-20T10:11:21.761Z,3.80
2023-05-20T10:14:29.475Z,4.18
2023-05-20T10:17:29.852Z,6.05
2023-05-20T10:20:24.433Z,6.72
2023-05-20T10:23:24.713Z,5.75
2023-05-20T10:26:17.577Z,5.43
2023-05-20T10:29:20.637Z,5.97
2023-05-20T10:32:24.823Z,4.93
2023-05-20T10:35:26.345Z,4.63
2023-05-20T10:38:20.686Z,4.35
2023-05-20T10:41:14.088Z,5.75
2023-05-20T10:44:07.879Z,5.85
2023-05-20T10:50:02.060Z,6.90
2023-05-20T10:52:57.059Z,5.45
2023-05-20T10:55:54.612Z,6.40
2023-05-20T10:58:49.046Z,6.25
2023-05-20T11:01:43.599Z,5.95
2023-05-20T11:04:37.667Z,6.07
2023-05-20T11:07:31.972Z,5.65
2023-05-20T11:10:26.583Z,6.13
2023-05-20T11:13:19.901Z,5.80
2023-05-20T11:16:12.816Z,5.70
2023-05-20T11:19:05.961Z,6.47
2023-05-20T11:22:01.692Z,5.38
2023-05-20T11:24:54.672Z,6.10
2023-05-20T11:27:49.174Z,5.53
2023-05-20T11:30:46.135Z,5.40
2023-05-20T11:33:43.160Z,5.60
2023-05-20T11:36:35.570Z,5.22
2023-05-20T11:39:31.480Z,5.38
2023-05-20T11:42:24.856Z,5.15
2023-05-20T11:45:19.340Z,5.45
2023-05-20T11:48:15.650Z,5.63
2023-05-20T11:51:09.975Z,5.20
2023-05-20T11:54:03.746Z,5.75
2023-05-20T11:56:57.168Z,5.80
2023-05-20T11:59:50.784Z,5.07
2023-05-20T12:02:45.566Z,5.03
2023-05-20T12:05:39.042Z,4.57
2023-05-20T12:08:32.675Z,4.82
2023-05-20T12:11:26.019Z,5.75
2023-05-20T12:14:19.006Z,5.68
2023-05-20T12:17:11.800Z,5.30
2023-05-20T12:20:07.453Z,4.93
2023-05-20T12:23:01.327Z,5.63
2023-05-20T12:25:55.226Z,5.53
2023-05-20T12:28:48.013Z,5.15
2023-05-20T12:31:40.786Z,5.22
2023-05-20T12:34:33.793Z,6.15
2023-05-20T12:37:30.353Z,5.25
2023-05-20T12:40:23.610Z,5.55
2023-05-20T12:43:16.663Z,5.53
2023-05-20T12:46:09.971Z,5.80
2023-05-20T12:49:03.039Z,4.93
2023-05-20T12:51:55.959Z,5.57
2023-05-20T12:54:50.718Z,4.40
2023-05-20T12:57:45.508Z,5.75
2023-05-20T13:00:39.074Z,5.97
2023-05-20T13:03:32.051Z,5.47
2023-05-20T13:06:26.280Z,5.40
2023-05-20T13:09:19.985Z,6.07
2023-05-20T13:12:15.184Z,5.70
2023-05-20T13:15:09.282Z,5.50
2023-05-20T13:18:03.642Z,5.15
2023-05-20T13:20:57.135Z,5.25
2023-05-20T13:23:50.258Z,5.68
2023-05-20T13:26:43.769Z,5.15
2023-05-20T13:29:38.253Z,5.30
2023-05-20T13:32:31.464Z,5.13
2023-05-20T13:35:25.582Z,5.63
2023-05-20T13:38:19.199Z,5.50
2023-05-20T13:41:11.769Z,5.70
2023-05-20T13:44:04.881Z,5.47
2023-05-20T13:46:59.950Z,5.55
2023-05-20T13:49:53.051Z,5.60
2023-05-20T13:52:46.300Z,5.15
2023-05-20T13:55:38.973Z,4.90
2023-05-20T13:58:31.710Z,5.13
2023-05-20T14:01:25.093Z,4.75
2023-05-20T14:04:19.300Z,5.57
2023-05-20T14:07:11.982Z,4.88
2023-05-20T14:10:06.098Z,4.60
2023-05-20T14:13:01.913Z,4.75
2023-05-20T14:15:55.695Z,5.22
2023-05-20T14:18:49.194Z,4.88
2023-05-20T14:21:43.423Z,5.28
2023-05-20T14:24:37.105Z,5.00
2023-05-20T14:27:30.908Z,5.20
2023-05-20T14:30:24.952Z,5.45
2023-05-20T14:33:18.330Z,5.82
2023-05-20T14:36:12.752Z,5.28
2023-05-20T14:39:07.084Z,5.03
2023-05-20T14:42:00.071Z,5.78
2023-05-20T14:44:53.059Z,5.40
2023-05-20T14:47:46.031Z,5.20
2023-05-20T14:50:39.298Z,5.20
2023-05-20T14:53:32.314Z,4.90
2023-05-20T14:56:26.886Z,5.93
2023-05-20T14:59:20.371Z,4.75
2023-05-20T15:02:15.661Z,5.50
2023-05-20T15:05:11.862Z,5.45
2023-05-20T15:08:06.064Z,5.28
2023-05-20T15:10:58.822Z,5.88
2023-05-20T15:13:53.392Z,5.20
2023-05-20T15:16:47.042Z,5.43
2023-05-20T15:19:41.795Z,5.50
2023-05-20T15:22:34.839Z,5.47
2023-05-20T15:25:27.995Z,5.65
2023-05-20T15:28:21.124Z,4.97
2023-05-20T15:31:15.823Z,5.25
2023-05-20T15:34:09.213Z,5.75
2023-05-20T15:37:02.595Z,5.53
2023-05-20T15:39:56.064Z,4.90
2023-05-20T15:42:49.185Z,5.30
2023-05-20T15:45:42.010Z,5.38
2023-05-20T15:48:37.900Z,5.40
2023-05-20T15:51:31.326Z,5.47
2023-05-20T15:54:24.413Z,5.93
2023-05-20T15:57:18.185Z,6.18
2023-05-20T16:00:12.620Z,6.35
2023-05-20T16:03:06.486Z,5.55
2023-05-20T16:06:01.607Z,5.85
2023-05-20T16:08:55.061Z,5.70
2023-05-20T16:11:48.682Z,5.90
2023-05-20T16:14:42.099Z,6.15
2023-05-20T16:17:35.472Z,6.18
2023-05-20T16:20:29.044Z,5.15
2023-05-20T16:23:24.377Z,5.55
2023-05-20T16:26:17.261Z,5.63
2023-05-20T16:29:10.302Z,6.38
2023-05-20T16:32:03.373Z,5.90
2023-05-20T16:34:56.193Z,5.63
2023-05-20T16:37:49.354Z,5.95
2023-05-20T16:40:43.481Z,5.95
2023-05-20T16:43:37.203Z,5.60
2023-05-20T16:46:30.470Z,6.07
2023-05-20T16:49:24.135Z,5.20
2023-05-20T16:52:17.485Z,6.20
2023-05-20T16:55:12.570Z,5.53
2023-05-20T16:58:07.550Z,6.13
2023-05-20T17:01:00.947Z,5.88
2023-05-20T17:03:54.027Z,5.93
2023-05-20T17:06:49.775Z,5.97
2023-05-20T17:09:43.260Z,6.30
2023-05-20T17:12:36.320Z,5.82
2023-05-20T17:15:30.752Z,6.45
2023-05-20T17:18:24.432Z,6.22
2023-05-20T17:21:20.377Z,6.15
2023-05-20T17:24:13.211Z,6.55
2023-05-20T17:27:07.106Z,5.90
2023-05-20T17:30:00.766Z,5.63
2023-05-20T17:32:57.370Z,6.35
2023-05-20T17:35:51.678Z,6.22
2023-05-20T17:38:45.221Z,5.93
2023-05-20T17:41:38.244Z,5.97
2023-05-20T17:44:31.470Z,6.47
2023-05-20T17:47:24.333Z,6.72
2023-05-20T17:50:18.853Z,6.00
2023-05-20T17:53:12.381Z,6.53
2023-05-20T17:56:06.490Z,6.13
2023-05-20T17:58:59.642Z,6.57
2023-05-20T18:01:53.770Z,7.28
2023-05-20T18:04:47.074Z,6.75
2023-05-20T18:07:41.891Z,6.65
2023-05-20T18:10:35.253Z,6.22
2023-05-20T18:13:28.542Z,7.25
2023-05-20T18:16:22.396Z,7.18
2023-05-20T18:19:15.798Z,6.72
2023-05-20T18:22:09.553Z,6.95
2023-05-20T18:25:05.238Z,7.35
2023-05-20T18:27:58.434Z,6.82
2023-05-20T18:30:51.252Z,6.93
2023-05-20T18:33:44.196Z,6.40
2023-05-20T18:36:37.604Z,6.97
2023-05-20T18:39:31.300Z,7.15
2023-05-20T18:42:25.831Z,7.43
2023-05-20T18:45:19.205Z,7.25
2023-05-20T18:48:15.914Z,7.40
2023-05-20T18:51:13.350Z,6.95
2023-05-20T18:54:06.719Z,7.95
2023-05-20T18:57:00.522Z,7.38
2023-05-20T18:59:55.209Z,7.88
2023-05-20T19:02:48.407Z,7.40
2023-05-20T19:05:41.365Z,7.45
2023-05-20T19:08:34.259Z,7.25
2023-05-20T19:11:27.436Z,7.65
2023-05-20T19:14:20.392Z,7.80
2023-05-20T19:17:15.166Z,7.65
2023-05-20T19:20:10.398Z,7.53
2023-05-20T19:23:03.939Z,7.90
2023-05-20T19:25:57.703Z,7.80
2023-05-20T19:28:51.709Z,8.43
2023-05-20T19:31:45.872Z,7.80
2023-05-20T19:34:41.583Z,8.93
2023-05-20T19:37:35.158Z,7.97
2023-05-20T19:40:28.458Z,7.93
2023-05-20T19:43:21.843Z,8.65
2023-05-20T19:46:15.376Z,8.10
2023-05-20T19:49:08.497Z,7.50
2023-05-20T19:52:02.897Z,8.18
2023-05-20T19:54:56.716Z,8.45
2023-05-20T19:57:53.352Z,8.38
2023-05-20T20:00:46.368Z,8.20
2023-05-20T20:03:40.125Z,8.88
2023-05-20T20:06:33.545Z,8.63
2023-05-20T20:09:28.555Z,8.40
2023-05-20T20:12:21.902Z,8.15
2023-05-20T20:15:15.813Z,8.32
2023-05-20T20:18:09.390Z,8.05
2023-05-20T20:21:05.976Z,8.02
2023-05-20T20:23:59.979Z,7.60
2023-05-20T20:26:56.759Z,8.55
2023-05-20T20:29:50.396Z,7.90
2023-05-20T20:32:43.793Z,8.65
2023-05-20T20:35:37.742Z,7.97
2023-05-20T20:38:31.490Z,8.43
2023-05-20T20:41:24.907Z,7.78
2023-05-20T20:44:22.452Z,9.10
2023-05-20T20:47:15.708Z,8.85
2023-05-20T20:50:11.471Z,7.90
2023-05-20T20:53:04.730Z,7.78
2023-05-20T20:55:58.347Z,8.43
2023-05-20T20:58:54.097Z,8.68
2023-05-20T21:01:49.454Z,8.60
2023-05-20T21:04:43.117Z,7.28
2023-05-20T21:07:38.898Z,8.32
2023-05-20T21:10:33.653Z,8.55
2023-05-20T21:13:28.292Z,8.23
2023-05-20T21:16:21.574Z,8.15
2023-05-20T21:19:16.213Z,8.30
2023-05-20T21:22:09.699Z,7.88
2023-05-20T21:25:03.498Z,7.97
2023-05-20T21:27:56.558Z,8.95
2023-05-20T21:30:49.536Z,7.88
2023-05-20T21:33:42.243Z,8.35
2023-05-20T21:36:37.037Z,7.97
2023-05-20T21:39:30.574Z,7.88
2023-05-20T21:42:23.655Z,8.38
2023-05-20T21:45:17.651Z,8.10
2023-05-20T21:48:11.374Z,8.00
2023-05-20T21:51:04.962Z,8.05
2023-05-20T21:53:59.697Z,8.18
2023-05-20T21:56:52.912Z,7.88
2023-05-20T21:59:46.350Z,7.57
2023-05-20T22:02:39.844Z,8.02
2023-05-20T22:05:34.718Z,8.45
2023-05-20T22:08:30.801Z,8.00
2023-05-20T22:11:26.394Z,7.43
2023-05-20T22:14:19.581Z,7.30
2023-05-20T22:17:12.978Z,8.77
2023-05-20T22:20:10.499Z,7.53
2023-05-20T22:23:04.692Z,7.70
2023-05-20T22:25:58.993Z,7.97
2023-05-20T22:28:53.718Z,8.50
2023-05-20T22:31:47.513Z,8.00
2023-05-20T22:34:40.501Z,7.03
2023-05-20T22:37:33.798Z,7.68
2023-05-20T22:40:27.937Z,7.80
2023-05-20T22:43:23.249Z,7.63
2023-05-20T22:46:18.125Z,7.78
2023-05-20T22:49:12.821Z,7.38
2023-05-20T22:52:07.774Z,8.07
2023-05-20T22:55:01.851Z,7.70
2023-05-20T22:57:55.587Z,7.38
2023-05-20T23:00:48.754Z,7.10
2023-05-20T23:03:46.835Z,7.60
2023-05-20T23:06:40.346Z,8.25
2023-05-20T23:09:33.443Z,7.47
2023-05-20T23:12:26.655Z,7.30
2023-05-20T23:15:20.053Z,7.90
2023-05-20T23:18:13.586Z,7.25
2023-05-20T23:21:08.264Z,7.03
2023-05-20T23:24:01.596Z,7.82
2023-05-20T23:26:54.908Z,7.30
2023-05-20T23:29:48.409Z,7.43
2023-05-20T23:32:41.511Z,7.93
2023-05-20T23:35:34.625Z,7.70
2023-05-20T23:38:30.419Z,7.55
2023-05-20T23:41:24.497Z,7.63
2023-05-20T23:44:17.793Z,7.25
2023-05-20T23:47:13.639Z,6.60
2023-05-20T23:50:07.344Z,7.20
2023-05-20T23:53:00.710Z,7.28
2023-05-20T23:55:55.041Z,7.47
2023-05-20T23:58:48.601Z,6.80
